sensor_id;sensor_type;location;lat;lon;timestamp;P1;durP1;ratioP1;P2;durP2;ratioP2
7316;SDS011;3699;51.462;6.696;2024-02-21T00:01:31;36.83;;;15.73;;
7316;SDS011;3699;51.462;6.696;2024-02-21T00:03:57;31.43;;;13.87;;
7316;SDS011;3699;51.462;6.696;2024-02-21T00:06:25;30.57;;;12.73;;
7316;SDS011;3699;51.462;6.696;2024-02-21T00:08:52;35.07;;;12.93;;
7316;SDS011;3699;51.462;6.696;2024-02-21T00:11:19;26.40;;;11.80;;
7316;SDS011;3699;51.462;6.696;2024-02-21T00:13:46;25.63;;;12.37;;
7316;SDS011;3699;51.462;6.696;2024-02-21T00:16:12;25.63;;;12.47;;
7316;SDS011;3699;51.462;6.696;2024-02-21T00:18:40;34.13;;;12.93;;
7316;SDS011;3699;51.462;6.696;2024-02-21T00:21:07;26.17;;;12.73;;
7316;SDS011;3699;51.462;6.696;2024-02-21T00:23:35;34.30;;;13.83;;
7316;SDS011;3699;51.462;6.696;2024-02-21T00:26:02;27.63;;;13.27;;
7316;SDS011;3699;51.462;6.696;2024-02-21T00:28:30;31.87;;;13.03;;
7316;SDS011;3699;51.462;6.696;2024-02-21T00:30:57;29.63;;;13.80;;
7316;SDS011;3699;51.462;6.696;2024-02-21T00:33:24;37.83;;;14.83;;
7316;SDS011;3699;51.462;6.696;2024-02-21T00:35:51;35.33;;;13.27;;
7316;SDS011;3699;51.462;6.696;2024-02-21T00:38:18;40.87;;;14.10;;
7316;SDS011;3699;51.462;6.696;2024-02-21T00:40:46;34.67;;;14.53;;
7316;SDS011;3699;51.462;6.696;2024-02-21T00:43:13;29.10;;;13.70;;
7316;SDS011;3699;51.462;6.696;2024-02-21T00:45:40;35.33;;;15.23;;
7316;SDS011;3699;51.462;6.696;2024-02-21T00:48:07;34.37;;;14.07;;
7316;SDS011;3699;51.462;6.696;2024-02-21T00:50:33;37.57;;;14.17;;
7316;SDS011;3699;51.462;6.696;2024-02-21T00:53:02;41.80;;;16.57;;
7316;SDS011;3699;51.462;6.696;2024-02-21T00:55:29;34.50;;;15.13;;
7316;SDS011;3699;51.462;6.696;2024-02-21T00:57:57;30.00;;;14.13;;
7316;SDS011;3699;51.462;6.696;2024-02-21T01:00:24;32.70;;;13.90;;
7316;SDS011;3699;51.462;6.696;2024-02-21T01:02:50;32.97;;;14.30;;
7316;SDS011;3699;51.462;6.696;2024-02-21T01:05:17;30.73;;;14.33;;
7316;SDS011;3699;51.462;6.696;2024-02-21T01:07:45;36.20;;;15.33;;
7316;SDS011;3699;51.462;6.696;2024-02-21T01:10:11;36.23;;;15.10;;
7316;SDS011;3699;51.462;6.696;2024-02-21T01:12:38;37.17;;;14.03;;
7316;SDS011;3699;51.462;6.696;2024-02-21T01:15:06;48.17;;;16.53;;
7316;SDS011;3699;51.462;6.696;2024-02-21T01:17:34;31.07;;;13.53;;
7316;SDS011;3699;51.462;6.696;2024-02-21T01:20:01;26.60;;;13.60;;
7316;SDS011;3699;51.462;6.696;2024-02-21T01:22:30;28.07;;;13.03;;
7316;SDS011;3699;51.462;6.696;2024-02-21T01:24:57;23.60;;;13.10;;
7316;SDS011;3699;51.462;6.696;2024-02-21T01:27:23;32.47;;;12.83;;
7316;SDS011;3699;51.462;6.696;2024-02-21T01:29:50;35.63;;;12.70;;
7316;SDS011;3699;51.462;6.696;2024-02-21T01:32:18;35.00;;;13.10;;
7316;SDS011;3699;51.462;6.696;2024-02-21T01:34:45;29.57;;;13.70;;
7316;SDS011;3699;51.462;6.696;2024-02-21T01:37:12;33.90;;;14.30;;
7316;SDS011;3699;51.462;6.696;2024-02-21T01:39:38;28.60;;;13.03;;
7316;SDS011;3699;51.462;6.696;2024-02-21T01:42:05;27.77;;;12.13;;
7316;SDS011;3699;51.462;6.696;2024-02-21T01:44:32;31.77;;;12.13;;
7316;SDS011;3699;51.462;6.696;2024-02-21T01:46:59;27.80;;;12.40;;
7316;SDS011;3699;51.462;6.696;2024-02-21T01:49:27;31.77;;;13.33;;
7316;SDS011;3699;51.462;6.696;2024-02-21T01:51:54;23.33;;;11.13;;
7316;SDS011;3699;51.462;6.696;2024-02-21T01:54:21;24.63;;;11.33;;
7316;SDS011;3699;51.462;6.696;2024-02-21T01:56:48;28.13;;;11.47;;
7316;SDS011;3699;51.462;6.696;2024-02-21T01:59:15;27.60;;;12.00;;
7316;SDS011;3699;51.462;6.696;2024-02-21T02:01:43;23.70;;;11.77;;
7316;SDS011;3699;51.462;6.696;2024-02-21T02:04:10;25.33;;;11.43;;
7316;SDS011;3699;51.462;6.696;2024-02-21T02:06:38;20.07;;;10.60;;
7316;SDS011;3699;51.462;6.696;2024-02-21T02:09:06;25.30;;;11.93;;
7316;SDS011;3699;51.462;6.696;2024-02-21T02:11:32;38.07;;;13.33;;
7316;SDS011;3699;51.462;6.696;2024-02-21T02:13:59;25.10;;;11.03;;
7316;SDS011;3699;51.462;6.696;2024-02-21T02:16:26;28.63;;;11.37;;
7316;SDS011;3699;51.462;6.696;2024-02-21T02:18:53;29.40;;;12.20;;
7316;SDS011;3699;51.462;6.696;2024-02-21T02:21:22;24.17;;;11.13;;
7316;SDS011;3699;51.462;6.696;2024-02-21T02:23:53;25.97;;;11.23;;
7316;SDS011;3699;51.462;6.696;2024-02-21T02:26:20;31.63;;;13.10;;
7316;SDS011;3699;51.462;6.696;2024-02-21T02:28:47;22.43;;;10.07;;
7316;SDS011;3699;51.462;6.696;2024-02-21T02:31:14;25.23;;;11.93;;
7316;SDS011;3699;51.462;6.696;2024-02-21T02:33:42;24.00;;;11.53;;
7316;SDS011;3699;51.462;6.696;2024-02-21T02:36:08;22.30;;;11.33;;
7316;SDS011;3699;51.462;6.696;2024-02-21T02:38:35;25.63;;;12.70;;
7316;SDS011;3699;51.462;6.696;2024-02-21T02:41:04;23.07;;;10.57;;
7316;SDS011;3699;51.462;6.696;2024-02-21T02:43:31;21.33;;;11.00;;
7316;SDS011;3699;51.462;6.696;2024-02-21T02:45:57;27.83;;;10.50;;
7316;SDS011;3699;51.462;6.696;2024-02-21T02:48:24;27.50;;;10.87;;
7316;SDS011;3699;51.462;6.696;2024-02-21T02:50:51;28.73;;;11.23;;
7316;SDS011;3699;51.462;6.696;2024-02-21T02:53:18;30.00;;;12.37;;
7316;SDS011;3699;51.462;6.696;2024-02-21T02:55:45;20.03;;;10.43;;
7316;SDS011;3699;51.462;6.696;2024-02-21T02:58:13;29.60;;;11.43;;
7316;SDS011;3699;51.462;6.696;2024-02-21T03:00:39;26.27;;;12.20;;
7316;SDS011;3699;51.462;6.696;2024-02-21T03:03:07;22.73;;;10.47;;
7316;SDS011;3699;51.462;6.696;2024-02-21T03:05:34;19.67;;;11.03;;
7316;SDS011;3699;51.462;6.696;2024-02-21T03:08:01;29.03;;;11.90;;
7316;SDS011;3699;51.462;6.696;2024-02-21T03:10:32;23.63;;;10.20;;
7316;SDS011;3699;51.462;6.696;2024-02-21T03:12:59;26.97;;;11.10;;
7316;SDS011;3699;51.462;6.696;2024-02-21T03:15:27;19.67;;;10.40;;
7316;SDS011;3699;51.462;6.696;2024-02-21T03:17:54;24.10;;;11.20;;
7316;SDS011;3699;51.462;6.696;2024-02-21T03:20:20;26.70;;;11.13;;
7316;SDS011;3699;51.462;6.696;2024-02-21T03:22:47;25.93;;;10.87;;
7316;SDS011;3699;51.462;6.696;2024-02-21T03:25:14;24.20;;;10.83;;
7316;SDS011;3699;51.462;6.696;2024-02-21T03:27:41;16.47;;;10.27;;
7316;SDS011;3699;51.462;6.696;2024-02-21T03:30:08;20.27;;;10.13;;
7316;SDS011;3699;51.462;6.696;2024-02-21T03:32:37;27.27;;;10.83;;
7316;SDS011;3699;51.462;6.696;2024-02-21T03:35:04;28.03;;;10.80;;
7316;SDS011;3699;51.462;6.696;2024-02-21T03:37:31;23.43;;;11.30;;
7316;SDS011;3699;51.462;6.696;2024-02-21T03:39:58;24.67;;;10.87;;
7316;SDS011;3699;51.462;6.696;2024-02-21T03:42:25;21.30;;;9.77;;
7316;SDS011;3699;51.462;6.696;2024-02-21T03:44:54;24.03;;;11.87;;
7316;SDS011;3699;51.462;6.696;2024-02-21T03:47:21;30.10;;;11.73;;
7316;SDS011;3699;51.462;6.696;2024-02-21T03:49:49;21.53;;;9.53;;
7316;SDS011;3699;51.462;6.696;2024-02-21T03:52:16;21.17;;;10.37;;
7316;SDS011;3699;51.462;6.696;2024-02-21T03:54:43;22.73;;;9.77;;
7316;SDS011;3699;51.462;6.696;2024-02-21T03:57:09;22.13;;;10.20;;
7316;SDS011;3699;51.462;6.696;2024-02-21T03:59:36;22.17;;;10.23;;
7316;SDS011;3699;51.462;6.696;2024-02-21T04:02:04;18.67;;;9.87;;
7316;SDS011;3699;51.462;6.696;2024-02-21T04:04:33;20.67;;;10.53;;
7316;SDS011;3699;51.462;6.696;2024-02-21T04:07:01;24.30;;;11.37;;
7316;SDS011;3699;51.462;6.696;2024-02-21T04:09:31;19.17;;;9.47;;
7316;SDS011;3699;51.462;6.696;2024-02-21T04:11:58;21.30;;;9.97;;
7316;SDS011;3699;51.462;6.696;2024-02-21T04:14:25;19.00;;;10.00;;
7316;SDS011;3699;51.462;6.696;2024-02-21T04:16:52;23.80;;;10.03;;
7316;SDS011;3699;51.462;6.696;2024-02-21T04:19:19;22.23;;;10.40;;
7316;SDS011;3699;51.462;6.696;2024-02-21T04:21:46;19.27;;;9.23;;
7316;SDS011;3699;51.462;6.696;2024-02-21T04:24:14;24.90;;;11.23;;
7316;SDS011;3699;51.462;6.696;2024-02-21T04:26:41;21.43;;;10.10;;
7316;SDS011;3699;51.462;6.696;2024-02-21T04:29:08;21.33;;;9.93;;
7316;SDS011;3699;51.462;6.696;2024-02-21T04:31:35;19.07;;;9.73;;
7316;SDS011;3699;51.462;6.696;2024-02-21T04:34:02;22.17;;;9.93;;
7316;SDS011;3699;51.462;6.696;2024-02-21T04:36:29;19.77;;;9.73;;
7316;SDS011;3699;51.462;6.696;2024-02-21T04:38:56;20.63;;;10.13;;
7316;SDS011;3699;51.462;6.696;2024-02-21T04:41:24;22.00;;;9.33;;
7316;SDS011;3699;51.462;6.696;2024-02-21T04:43:51;20.53;;;9.23;;
7316;SDS011;3699;51.462;6.696;2024-02-21T04:46:18;18.87;;;8.20;;
7316;SDS011;3699;51.462;6.696;2024-02-21T04:48:44;15.53;;;8.07;;
7316;SDS011;3699;51.462;6.696;2024-02-21T04:51:11;22.77;;;8.03;;
7316;SDS011;3699;51.462;6.696;2024-02-21T04:53:39;21.13;;;8.73;;
7316;SDS011;3699;51.462;6.696;2024-02-21T04:56:05;23.07;;;9.03;;
7316;SDS011;3699;51.462;6.696;2024-02-21T04:58:37;13.73;;;7.63;;
7316;SDS011;3699;51.462;6.696;2024-02-21T05:01:07;13.37;;;7.80;;
7316;SDS011;3699;51.462;6.696;2024-02-21T05:03:33;23.57;;;8.33;;
7316;SDS011;3699;51.462;6.696;2024-02-21T05:06:00;24.23;;;8.63;;
7316;SDS011;3699;51.462;6.696;2024-02-21T05:08:27;21.57;;;9.40;;
7316;SDS011;3699;51.462;6.696;2024-02-21T05:10:54;16.03;;;7.87;;
7316;SDS011;3699;51.462;6.696;2024-02-21T05:13:21;23.87;;;7.47;;
7316;SDS011;3699;51.462;6.696;2024-02-21T05:15:49;13.23;;;8.10;;
7316;SDS011;3699;51.462;6.696;2024-02-21T05:18:16;16.17;;;8.50;;
7316;SDS011;3699;51.462;6.696;2024-02-21T05:20:42;18.40;;;8.07;;
7316;SDS011;3699;51.462;6.696;2024-02-21T05:23:09;17.93;;;8.63;;
7316;SDS011;3699;51.462;6.696;2024-02-21T05:25:36;14.87;;;8.03;;
7316;SDS011;3699;51.462;6.696;2024-02-21T05:28:03;18.60;;;9.00;;
7316;SDS011;3699;51.462;6.696;2024-02-21T05:30:34;18.20;;;8.23;;
7316;SDS011;3699;51.462;6.696;2024-02-21T05:33:05;21.67;;;9.73;;
7316;SDS011;3699;51.462;6.696;2024-02-21T05:35:32;24.20;;;9.80;;
7316;SDS011;3699;51.462;6.696;2024-02-21T05:37:59;17.07;;;8.43;;
7316;SDS011;3699;51.462;6.696;2024-02-21T05:40:29;25.07;;;9.90;;
7316;SDS011;3699;51.462;6.696;2024-02-21T05:42:56;17.40;;;8.33;;
7316;SDS011;3699;51.462;6.696;2024-02-21T05:45:22;21.13;;;8.83;;
7316;SDS011;3699;51.462;6.696;2024-02-21T05:47:49;17.27;;;8.80;;
7316;SDS011;3699;51.462;6.696;2024-02-21T05:50:17;17.03;;;8.53;;
7316;SDS011;3699;51.462;6.696;2024-02-21T05:52:46;25.73;;;8.83;;
7316;SDS011;3699;51.462;6.696;2024-02-21T05:55:12;21.87;;;8.77;;
7316;SDS011;3699;51.462;6.696;2024-02-21T05:57:39;19.07;;;8.73;;
7316;SDS011;3699;51.462;6.696;2024-02-21T06:00:06;22.00;;;9.47;;
7316;SDS011;3699;51.462;6.696;2024-02-21T06:02:34;17.93;;;9.13;;
7316;SDS011;3699;51.462;6.696;2024-02-21T06:05:01;19.67;;;9.03;;
7316;SDS011;3699;51.462;6.696;2024-02-21T06:07:29;17.37;;;8.43;;
7316;SDS011;3699;51.462;6.696;2024-02-21T06:09:56;18.03;;;8.77;;
7316;SDS011;3699;51.462;6.696;2024-02-21T06:12:23;19.53;;;8.57;;
7316;SDS011;3699;51.462;6.696;2024-02-21T06:14:50;16.50;;;8.50;;
7316;SDS011;3699;51.462;6.696;2024-02-21T06:17:16;18.70;;;9.07;;
7316;SDS011;3699;51.462;6.696;2024-02-21T06:19:43;17.97;;;8.80;;
7316;SDS011;3699;51.462;6.696;2024-02-21T06:22:10;21.73;;;8.87;;
7316;SDS011;3699;51.462;6.696;2024-02-21T06:24:39;18.00;;;8.13;;
7316;SDS011;3699;51.462;6.696;2024-02-21T06:27:05;17.07;;;8.60;;
7316;SDS011;3699;51.462;6.696;2024-02-21T06:29:32;19.03;;;8.57;;
7316;SDS011;3699;51.462;6.696;2024-02-21T06:32:00;19.13;;;8.20;;
7316;SDS011;3699;51.462;6.696;2024-02-21T06:34:28;18.03;;;8.20;;
7316;SDS011;3699;51.462;6.696;2024-02-21T06:36:55;12.53;;;7.63;;
7316;SDS011;3699;51.462;6.696;2024-02-21T06:39:21;19.73;;;7.80;;
7316;SDS011;3699;51.462;6.696;2024-02-21T06:41:50;25.90;;;8.40;;
7316;SDS011;3699;51.462;6.696;2024-02-21T06:44:18;14.47;;;7.37;;
7316;SDS011;3699;51.462;6.696;2024-02-21T06:46:45;17.97;;;7.77;;
7316;SDS011;3699;51.462;6.696;2024-02-21T06:49:12;19.07;;;8.03;;
7316;SDS011;3699;51.462;6.696;2024-02-21T06:51:41;17.87;;;7.30;;
7316;SDS011;3699;51.462;6.696;2024-02-21T06:54:08;20.07;;;8.73;;
7316;SDS011;3699;51.462;6.696;2024-02-21T06:56:35;18.83;;;7.97;;
7316;SDS011;3699;51.462;6.696;2024-02-21T06:59:04;18.03;;;7.77;;
7316;SDS011;3699;51.462;6.696;2024-02-21T07:01:31;18.07;;;7.80;;
7316;SDS011;3699;51.462;6.696;2024-02-21T07:03:58;17.27;;;8.23;;
7316;SDS011;3699;51.462;6.696;2024-02-21T07:06:25;19.47;;;9.73;;
7316;SDS011;3699;51.462;6.696;2024-02-21T07:08:52;16.23;;;8.73;;
7316;SDS011;3699;51.462;6.696;2024-02-21T07:11:18;16.93;;;8.80;;
7316;SDS011;3699;51.462;6.696;2024-02-21T07:13:45;17.23;;;8.90;;
7316;SDS011;3699;51.462;6.696;2024-02-21T07:16:13;17.67;;;8.27;;
7316;SDS011;3699;51.462;6.696;2024-02-21T07:18:40;18.53;;;8.43;;
7316;SDS011;3699;51.462;6.696;2024-02-21T07:21:07;12.70;;;7.13;;
7316;SDS011;3699;51.462;6.696;2024-02-21T07:23:33;20.87;;;7.77;;
7316;SDS011;3699;51.462;6.696;2024-02-21T07:26:00;17.57;;;8.20;;
7316;SDS011;3699;51.462;6.696;2024-02-21T07:28:27;15.13;;;8.00;;
7316;SDS011;3699;51.462;6.696;2024-02-21T07:30:54;16.03;;;7.73;;
7316;SDS011;3699;51.462;6.696;2024-02-21T07:33:22;19.87;;;8.03;;
7316;SDS011;3699;51.462;6.696;2024-02-21T07:35:49;14.60;;;8.17;;
7316;SDS011;3699;51.462;6.696;2024-02-21T07:38:16;19.37;;;7.27;;
7316;SDS011;3699;51.462;6.696;2024-02-21T07:40:44;17.77;;;7.17;;
7316;SDS011;3699;51.462;6.696;2024-02-21T07:43:10;12.13;;;6.87;;
7316;SDS011;3699;51.462;6.696;2024-02-21T07:45:37;17.33;;;8.10;;
7316;SDS011;3699;51.462;6.696;2024-02-21T07:48:04;17.50;;;7.77;;
7316;SDS011;3699;51.462;6.696;2024-02-21T07:50:33;18.23;;;8.30;;
7316;SDS011;3699;51.462;6.696;2024-02-21T07:53:00;13.47;;;6.73;;
7316;SDS011;3699;51.462;6.696;2024-02-21T07:55:27;16.03;;;7.13;;
7316;SDS011;3699;51.462;6.696;2024-02-21T07:57:54;13.33;;;6.57;;
7316;SDS011;3699;51.462;6.696;2024-02-21T08:00:21;17.17;;;7.17;;
7316;SDS011;3699;51.462;6.696;2024-02-21T08:02:48;14.60;;;7.47;;
7316;SDS011;3699;51.462;6.696;2024-02-21T08:05:15;22.43;;;7.73;;
7316;SDS011;3699;51.462;6.696;2024-02-21T08:07:44;10.43;;;6.50;;
7316;SDS011;3699;51.462;6.696;2024-02-21T08:10:11;15.00;;;7.67;;
7316;SDS011;3699;51.462;6.696;2024-02-21T08:12:38;14.93;;;6.63;;
7316;SDS011;3699;51.462;6.696;2024-02-21T08:15:05;14.80;;;6.07;;
7316;SDS011;3699;51.462;6.696;2024-02-21T08:17:33;11.23;;;5.90;;
7316;SDS011;3699;51.462;6.696;2024-02-21T08:20:00;13.53;;;5.73;;
7316;SDS011;3699;51.462;6.696;2024-02-21T08:22:27;11.87;;;5.20;;
7316;SDS011;3699;51.462;6.696;2024-02-21T08:24:55;16.80;;;5.83;;
7316;SDS011;3699;51.462;6.696;2024-02-21T08:27:22;11.53;;;5.53;;
7316;SDS011;3699;51.462;6.696;2024-02-21T08:29:49;13.50;;;5.50;;
7316;SDS011;3699;51.462;6.696;2024-02-21T08:32:16;14.73;;;6.17;;
7316;SDS011;3699;51.462;6.696;2024-02-21T08:34:42;11.70;;;5.47;;
7316;SDS011;3699;51.462;6.696;2024-02-21T08:37:10;18.87;;;7.73;;
7316;SDS011;3699;51.462;6.696;2024-02-21T08:39:36;13.70;;;6.07;;
7316;SDS011;3699;51.462;6.696;2024-02-21T08:42:05;20.83;;;7.00;;
7316;SDS011;3699;51.462;6.696;2024-02-21T08:44:32;18.10;;;6.83;;
7316;SDS011;3699;51.462;6.696;2024-02-21T08:46:59;21.30;;;7.23;;
7316;SDS011;3699;51.462;6.696;2024-02-21T08:49:28;20.60;;;7.33;;
7316;SDS011;3699;51.462;6.696;2024-02-21T08:51:56;17.03;;;7.00;;
7316;SDS011;3699;51.462;6.696;2024-02-21T08:54:23;15.60;;;6.80;;
7316;SDS011;3699;51.462;6.696;2024-02-21T08:56:50;16.00;;;6.13;;
7316;SDS011;3699;51.462;6.696;2024-02-21T08:59:18;16.43;;;6.03;;
7316;SDS011;3699;51.462;6.696;2024-02-21T09:01:45;16.93;;;7.03;;
7316;SDS011;3699;51.462;6.696;2024-02-21T09:04:12;14.50;;;6.43;;
7316;SDS011;3699;51.462;6.696;2024-02-21T09:06:39;13.37;;;6.23;;
7316;SDS011;3699;51.462;6.696;2024-02-21T09:09:07;13.57;;;6.13;;
7316;SDS011;3699;51.462;6.696;2024-02-21T09:11:34;12.77;;;5.77;;
7316;SDS011;3699;51.462;6.696;2024-02-21T09:14:02;14.07;;;5.77;;
7316;SDS011;3699;51.462;6.696;2024-02-21T09:16:31;12.13;;;5.90;;
7316;SDS011;3699;51.462;6.696;2024-02-21T09:18:58;12.87;;;5.43;;
7316;SDS011;3699;51.462;6.696;2024-02-21T09:21:26;11.20;;;5.40;;
7316;SDS011;3699;51.462;6.696;2024-02-21T09:23:53;8.40;;;5.10;;
7316;SDS011;3699;51.462;6.696;2024-02-21T09:26:20;17.10;;;5.60;;
7316;SDS011;3699;51.462;6.696;2024-02-21T09:28:47;12.80;;;5.20;;
7316;SDS011;3699;51.462;6.696;2024-02-21T09:31:14;14.50;;;5.53;;
7316;SDS011;3699;51.462;6.696;2024-02-21T09:33:42;9.03;;;5.60;;
7316;SDS011;3699;51.462;6.696;2024-02-21T09:36:09;9.93;;;4.83;;
7316;SDS011;3699;51.462;6.696;2024-02-21T09:38:37;11.57;;;5.40;;
7316;SDS011;3699;51.462;6.696;2024-02-21T09:41:08;14.03;;;6.27;;
7316;SDS011;3699;51.462;6.696;2024-02-21T09:43:41;9.10;;;4.43;;
7316;SDS011;3699;51.462;6.696;2024-02-21T09:46:11;10.43;;;4.90;;
7316;SDS011;3699;51.462;6.696;2024-02-21T09:48:46;10.73;;;4.90;;
7316;SDS011;3699;51.462;6.696;2024-02-21T09:51:26;11.30;;;5.10;;
7316;SDS011;3699;51.462;6.696;2024-02-21T09:53:55;11.30;;;5.77;;
7316;SDS011;3699;51.462;6.696;2024-02-21T09:56:23;15.97;;;6.57;;
7316;SDS011;3699;51.462;6.696;2024-02-21T09:58:51;11.70;;;5.10;;
7316;SDS011;3699;51.462;6.696;2024-02-21T10:01:18;11.87;;;5.07;;
7316;SDS011;3699;51.462;6.696;2024-02-21T10:03:47;8.43;;;4.47;;
7316;SDS011;3699;51.462;6.696;2024-02-21T10:06:14;10.20;;;5.13;;
7316;SDS011;3699;51.462;6.696;2024-02-21T10:08:41;11.67;;;5.00;;
7316;SDS011;3699;51.462;6.696;2024-02-21T10:11:08;12.87;;;4.93;;
7316;SDS011;3699;51.462;6.696;2024-02-21T10:13:35;8.50;;;4.33;;
7316;SDS011;3699;51.462;6.696;2024-02-21T10:16:03;8.07;;;4.07;;
7316;SDS011;3699;51.462;6.696;2024-02-21T10:18:31;11.03;;;4.13;;
7316;SDS011;3699;51.462;6.696;2024-02-21T10:21:03;6.27;;;3.90;;
7316;SDS011;3699;51.462;6.696;2024-02-21T10:23:41;11.40;;;4.50;;
7316;SDS011;3699;51.462;6.696;2024-02-21T10:26:11;10.60;;;4.03;;
7316;SDS011;3699;51.462;6.696;2024-02-21T10:28:38;9.30;;;3.93;;
7316;SDS011;3699;51.462;6.696;2024-02-21T10:31:07;8.07;;;4.60;;
7316;SDS011;3699;51.462;6.696;2024-02-21T10:33:35;10.40;;;4.20;;
7316;SDS011;3699;51.462;6.696;2024-02-21T10:36:10;12.93;;;4.60;;
7316;SDS011;3699;51.462;6.696;2024-02-21T10:38:37;11.20;;;5.23;;
7316;SDS011;3699;51.462;6.696;2024-02-21T10:41:05;9.60;;;4.30;;
7316;SDS011;3699;51.462;6.696;2024-02-21T10:43:38;8.93;;;4.23;;
7316;SDS011;3699;51.462;6.696;2024-02-21T10:46:06;10.50;;;4.67;;
7316;SDS011;3699;51.462;6.696;2024-02-21T10:48:37;10.17;;;4.73;;
7316;SDS011;3699;51.462;6.696;2024-02-21T10:51:14;11.87;;;4.20;;
7316;SDS011;3699;51.462;6.696;2024-02-21T10:53:44;8.77;;;4.10;;
7316;SDS011;3699;51.462;6.696;2024-02-21T10:56:21;8.47;;;4.37;;
7316;SDS011;3699;51.462;6.696;2024-02-21T10:58:50;8.93;;;4.30;;
7316;SDS011;3699;51.462;6.696;2024-02-21T11:01:18;8.13;;;3.93;;
7316;SDS011;3699;51.462;6.696;2024-02-21T11:03:45;6.93;;;3.90;;
7316;SDS011;3699;51.462;6.696;2024-02-21T11:06:16;10.67;;;4.47;;
7316;SDS011;3699;51.462;6.696;2024-02-21T11:08:43;12.53;;;4.40;;
7316;SDS011;3699;51.462;6.696;2024-02-21T11:11:12;9.47;;;4.37;;
7316;SDS011;3699;51.462;6.696;2024-02-21T11:13:42;8.10;;;4.40;;
7316;SDS011;3699;51.462;6.696;2024-02-21T11:16:11;6.63;;;3.70;;
7316;SDS011;3699;51.462;6.696;2024-02-21T11:18:47;15.03;;;5.63;;
7316;SDS011;3699;51.462;6.696;2024-02-21T11:21:15;7.43;;;4.53;;
7316;SDS011;3699;51.462;6.696;2024-02-21T11:23:43;7.83;;;4.13;;
7316;SDS011;3699;51.462;6.696;2024-02-21T11:26:10;11.00;;;4.40;;
7316;SDS011;3699;51.462;6.696;2024-02-21T11:28:45;9.27;;;4.10;;
7316;SDS011;3699;51.462;6.696;2024-02-21T11:31:22;9.13;;;4.07;;
7316;SDS011;3699;51.462;6.696;2024-02-21T11:33:52;8.80;;;4.00;;
7316;SDS011;3699;51.462;6.696;2024-02-21T11:36:25;16.23;;;4.93;;
7316;SDS011;3699;51.462;6.696;2024-02-21T11:38:52;7.43;;;3.90;;
7316;SDS011;3699;51.462;6.696;2024-02-21T11:41:19;7.20;;;3.97;;
7316;SDS011;3699;51.462;6.696;2024-02-21T11:43:46;7.80;;;4.23;;
7316;SDS011;3699;51.462;6.696;2024-02-21T11:46:14;9.53;;;4.40;;
7316;SDS011;3699;51.462;6.696;2024-02-21T11:48:41;10.17;;;4.27;;
7316;SDS011;3699;51.462;6.696;2024-02-21T11:51:09;12.20;;;4.00;;
7316;SDS011;3699;51.462;6.696;2024-02-21T11:53:38;11.10;;;4.33;;
7316;SDS011;3699;51.462;6.696;2024-02-21T11:56:06;7.50;;;4.07;;
7316;SDS011;3699;51.462;6.696;2024-02-21T11:58:33;11.73;;;4.40;;
7316;SDS011;3699;51.462;6.696;2024-02-21T12:01:00;7.53;;;4.07;;
7316;SDS011;3699;51.462;6.696;2024-02-21T12:03:27;10.20;;;3.90;;
7316;SDS011;3699;51.462;6.696;2024-02-21T12:05:55;9.97;;;4.20;;
7316;SDS011;3699;51.462;6.696;2024-02-21T12:08:23;8.30;;;4.30;;
7316;SDS011;3699;51.462;6.696;2024-02-21T12:10:53;9.77;;;4.10;;
7316;SDS011;3699;51.462;6.696;2024-02-21T12:13:22;8.77;;;4.10;;
7316;SDS011;3699;51.462;6.696;2024-02-21T12:15:50;9.53;;;4.00;;
7316;SDS011;3699;51.462;6.696;2024-02-21T12:18:17;8.77;;;4.63;;
7316;SDS011;3699;51.462;6.696;2024-02-21T12:20:44;12.20;;;4.67;;
7316;SDS011;3699;51.462;6.696;2024-02-21T12:23:14;10.50;;;4.97;;
7316;SDS011;3699;51.462;6.696;2024-02-21T12:25:41;8.53;;;4.57;;
7316;SDS011;3699;51.462;6.696;2024-02-21T12:28:10;7.20;;;3.83;;
7316;SDS011;3699;51.462;6.696;2024-02-21T12:30:37;11.37;;;4.37;;
7316;SDS011;3699;51.462;6.696;2024-02-21T12:33:05;7.17;;;4.30;;
7316;SDS011;3699;51.462;6.696;2024-02-21T12:35:32;16.77;;;5.17;;
7316;SDS011;3699;51.462;6.696;2024-02-21T12:37:59;12.07;;;4.40;;
7316;SDS011;3699;51.462;6.696;2024-02-21T12:40:26;11.40;;;4.53;;
7316;SDS011;3699;51.462;6.696;2024-02-21T12:42:57;8.93;;;3.97;;
7316;SDS011;3699;51.462;6.696;2024-02-21T12:45:26;14.97;;;4.47;;
7316;SDS011;3699;51.462;6.696;2024-02-21T12:47:53;8.60;;;4.43;;
7316;SDS011;3699;51.462;6.696;2024-02-21T12:50:20;7.97;;;3.93;;
7316;SDS011;3699;51.462;6.696;2024-02-21T12:52:48;12.40;;;4.00;;
7316;SDS011;3699;51.462;6.696;2024-02-21T12:55:15;7.57;;;4.33;;
7316;SDS011;3699;51.462;6.696;2024-02-21T12:57:42;8.60;;;4.00;;
7316;SDS011;3699;51.462;6.696;2024-02-21T13:00:10;7.13;;;3.70;;
7316;SDS011;3699;51.462;6.696;2024-02-21T13:02:38;13.47;;;4.97;;
7316;SDS011;3699;51.462;6.696;2024-02-21T13:05:06;15.70;;;4.07;;
7316;SDS011;3699;51.462;6.696;2024-02-21T13:07:33;9.63;;;3.77;;
7316;SDS011;3699;51.462;6.696;2024-02-21T13:10:00;10.13;;;4.37;;
7316;SDS011;3699;51.462;6.696;2024-02-21T13:12:28;13.33;;;4.13;;
7316;SDS011;3699;51.462;6.696;2024-02-21T13:14:56;6.10;;;3.70;;
7316;SDS011;3699;51.462;6.696;2024-02-21T13:17:23;8.90;;;3.87;;
7316;SDS011;3699;51.462;6.696;2024-02-21T13:19:51;11.13;;;3.93;;
7316;SDS011;3699;51.462;6.696;2024-02-21T13:22:18;6.80;;;3.17;;
7316;SDS011;3699;51.462;6.696;2024-02-21T13:24:47;7.87;;;3.43;;
7316;SDS011;3699;51.462;6.696;2024-02-21T13:27:14;13.10;;;3.67;;
7316;SDS011;3699;51.462;6.696;2024-02-21T13:29:41;6.57;;;3.37;;
7316;SDS011;3699;51.462;6.696;2024-02-21T13:32:08;11.30;;;3.57;;
7316;SDS011;3699;51.462;6.696;2024-02-21T13:34:35;6.03;;;3.90;;
7316;SDS011;3699;51.462;6.696;2024-02-21T13:37:04;9.67;;;3.40;;
7316;SDS011;3699;51.462;6.696;2024-02-21T13:39:34;11.50;;;3.63;;
7316;SDS011;3699;51.462;6.696;2024-02-21T13:42:02;6.47;;;3.63;;
7316;SDS011;3699;51.462;6.696;2024-02-21T13:44:30;10.90;;;4.33;;
7316;SDS011;3699;51.462;6.696;2024-02-21T13:46:59;9.23;;;4.83;;
7316;SDS011;3699;51.462;6.696;2024-02-21T13:49:26;8.13;;;4.00;;
7316;SDS011;3699;51.462;6.696;2024-02-21T13:51:55;6.67;;;3.60;;
7316;SDS011;3699;51.462;6.696;2024-02-21T13:54:24;9.40;;;4.13;;
7316;SDS011;3699;51.462;6.696;2024-02-21T13:56:51;12.53;;;4.50;;
7316;SDS011;3699;51.462;6.696;2024-02-21T13:59:17;7.60;;;3.73;;
7316;SDS011;3699;51.462;6.696;2024-02-21T14:01:44;10.23;;;4.00;;
7316;SDS011;3699;51.462;6.696;2024-02-21T14:04:11;8.00;;;4.13;;
7316;SDS011;3699;51.462;6.696;2024-02-21T14:06:39;9.43;;;3.93;;
7316;SDS011;3699;51.462;6.696;2024-02-21T14:09:08;12.07;;;3.67;;
7316;SDS011;3699;51.462;6.696;2024-02-21T14:11:37;8.73;;;4.33;;
7316;SDS011;3699;51.462;6.696;2024-02-21T14:14:05;7.57;;;4.33;;
7316;SDS011;3699;51.462;6.696;2024-02-21T14:16:32;10.27;;;3.60;;
7316;SDS011;3699;51.462;6.696;2024-02-21T14:18:59;12.23;;;4.40;;
7316;SDS011;3699;51.462;6.696;2024-02-21T14:21:27;8.77;;;3.43;;
7316;SDS011;3699;51.462;6.696;2024-02-21T14:23:54;9.17;;;4.47;;
7316;SDS011;3699;51.462;6.696;2024-02-21T14:26:23;8.37;;;4.13;;
7316;SDS011;3699;51.462;6.696;2024-02-21T14:28:51;9.80;;;3.80;;
7316;SDS011;3699;51.462;6.696;2024-02-21T14:31:18;8.50;;;4.07;;
7316;SDS011;3699;51.462;6.696;2024-02-21T14:33:45;6.60;;;3.97;;
7316;SDS011;3699;51.462;6.696;2024-02-21T14:36:12;8.50;;;3.63;;
7316;SDS011;3699;51.462;6.696;2024-02-21T14:38:40;13.63;;;3.73;;
7316;SDS011;3699;51.462;6.696;2024-02-21T14:41:08;5.10;;;3.80;;
7316;SDS011;3699;51.462;6.696;2024-02-21T14:43:37;13.40;;;4.67;;
7316;SDS011;3699;51.462;6.696;2024-02-21T14:46:05;7.53;;;3.77;;
7316;SDS011;3699;51.462;6.696;2024-02-21T14:48:32;9.97;;;4.30;;
7316;SDS011;3699;51.462;6.696;2024-02-21T14:50:59;7.00;;;4.57;;
7316;SDS011;3699;51.462;6.696;2024-02-21T14:53:26;6.50;;;4.03;;
7316;SDS011;3699;51.462;6.696;2024-02-21T14:55:54;5.73;;;3.50;;
7316;SDS011;3699;51.462;6.696;2024-02-21T14:58:22;10.87;;;4.00;;
7316;SDS011;3699;51.462;6.696;2024-02-21T15:00:50;6.87;;;3.93;;
7316;SDS011;3699;51.462;6.696;2024-02-21T15:03:18;5.50;;;3.83;;